Dera Ismail Khan Weather



Dera Ismail Khan's Current Weather

Temprature 23.16o overcast clouds

overcast clouds

Rain: 0 %

Min Temprature23.16o
Max Temprature23.16o
Humidity38
Wind Speed0.71 m/h
Sun Rise05:54:33
Sun Set18:40:52
Current Time: 09-Apr-2020 02:35:33
Lat/Lon: 31.83, 70.9




Dera Ismail Khan's Geo Location



Dera Ismail Khan's Weather Forecast

Time Overall Temp Min Temp Max Temp Humidity Wind Speed Rain
09-Apr-2020 (Thu)
05:00:00 overcast clouds 21.780 21.780 21.780 41 0.85 m/h 0 %
08:00:00 broken clouds 25.510 25.510 25.510 30 1.3 m/h 0 %
11:00:00 overcast clouds 29.790 29.790 29.790 23 3.76 m/h 0 %
14:00:00 broken clouds 32.720 32.720 32.720 19 5.36 m/h 0 %
17:00:00 overcast clouds 32.450 32.450 32.450 20 5.71 m/h 0 %
20:00:00 light rain 27.870 27.870 27.870 28 2.87 m/h 32 %
23:00:00 light rain 24.820 24.820 24.820 39 6.58 m/h 34 %
10-Apr-2020 (Fri)
02:00:00 clear sky 21.650 21.650 21.650 53 6.04 m/h 0 %
05:00:00 few clouds 20.560 20.560 20.560 56 4.02 m/h 0 %
08:00:00 clear sky 22.810 22.810 22.810 47 3.68 m/h 0 %
11:00:00 clear sky 28.580 28.580 28.580 31 3.23 m/h 0 %
14:00:00 few clouds 31.520 31.520 31.520 25 3.12 m/h 0 %
17:00:00 few clouds 31.720 31.720 31.720 24 3.35 m/h 0 %
20:00:00 scattered clouds 28.210 28.210 28.210 31 3.05 m/h 0 %
23:00:00 scattered clouds 26.690 26.690 26.690 34 2.45 m/h 0 %
11-Apr-2020 (Sat)
02:00:00 overcast clouds 25.170 25.170 25.170 37 1.42 m/h 0 %
05:00:00 overcast clouds 24.170 24.170 24.170 40 1.74 m/h 0 %
08:00:00 broken clouds 28.170 28.170 28.170 31 0.78 m/h 0 %
11:00:00 broken clouds 32.350 32.350 32.350 22 0.55 m/h 0 %
14:00:00 scattered clouds 34.620 34.620 34.620 19 1.01 m/h 0 %
17:00:00 broken clouds 34.790 34.790 34.790 19 0.64 m/h 0 %
20:00:00 overcast clouds 30.720 30.720 30.720 24 2.44 m/h 0 %
23:00:00 overcast clouds 28.820 28.820 28.820 26 2.29 m/h 0 %
12-Apr-2020 (Sun)
02:00:00 overcast clouds 27.020 27.020 27.020 29 1.38 m/h 0 %
05:00:00 overcast clouds 25.620 25.620 25.620 32 1 m/h 0 %
08:00:00 overcast clouds 29.830 29.830 29.830 24 0.8 m/h 0 %
11:00:00 overcast clouds 33.960 33.960 33.960 19 1.06 m/h 0 %
14:00:00 broken clouds 36.410 36.410 36.410 17 0.96 m/h 0 %
17:00:00 scattered clouds 36.880 36.880 36.880 16 2.45 m/h 0 %
20:00:00 scattered clouds 32.480 32.480 32.480 23 2.12 m/h 0 %
23:00:00 broken clouds 30.270 30.270 30.270 25 1.82 m/h 0 %
13-Apr-2020 (Mon)
02:00:00 overcast clouds 28.220 28.220 28.220 29 0.85 m/h 0 %
05:00:00 overcast clouds 27.190 27.190 27.190 30 1.01 m/h 0 %
08:00:00 broken clouds 31.100 31.100 31.100 24 1.86 m/h 0 %
11:00:00 broken clouds 35.790 35.790 35.790 18 2.15 m/h 0 %
14:00:00 clear sky 39.480 39.480 39.480 12 2.42 m/h 0 %
17:00:00 clear sky 39.640 39.640 39.640 9 2.97 m/h 0 %
20:00:00 clear sky 34.660 34.660 34.660 13 4.06 m/h 0 %
23:00:00 few clouds 32.090 32.090 32.090 19 3.14 m/h 0 %
14-Apr-2020 (Tue)
02:00:00 scattered clouds 29.500 29.500 29.500 22 1.4 m/h 0 %

Famous Cities (61)